createdAt,value
2019-04-11T00:01:34.215Z,101146.74
2019-04-11T00:03:55.717Z,101155.77
2019-04-11T00:06:28.285Z,101162.61
2019-04-11T00:09:00.786Z,101162.61
2019-04-11T00:11:35.773Z,101163.04
2019-04-11T00:14:08.019Z,101167.74
2019-04-11T00:16:41.531Z,101167.87
2019-04-11T00:19:14.036Z,101167.87
2019-04-11T00:21:46.758Z,101166.41
2019-04-11T00:24:20.805Z,101166.11
2019-04-11T00:26:56.905Z,101169.47
2019-04-11T00:29:30.299Z,101164.90
2019-04-11T00:32:04.989Z,101165.67
2019-04-11T00:34:37.367Z,101161.59
2019-04-11T00:37:10.719Z,101167.18
2019-04-11T00:39:43.738Z,101169.77
2019-04-11T00:42:16.642Z,101168.08
2019-04-11T00:44:49.522Z,101159.83
2019-04-11T00:47:22.744Z,101154.70
2019-04-11T00:49:55.410Z,101154.70
2019-04-11T00:52:27.986Z,101169.11
2019-04-11T00:55:00.098Z,101170.88
2019-04-11T00:57:32.805Z,101172.17
2019-04-11T01:00:09.010Z,101171.75
2019-04-11T01:02:43.275Z,101174.23
2019-04-11T01:05:17.292Z,101176.00
2019-04-11T01:07:49.893Z,101184.03
2019-04-11T01:10:24.507Z,101190.35
2019-04-11T01:12:57.297Z,101178.82
2019-04-11T01:15:29.772Z,101178.82
2019-04-11T01:18:03.524Z,101185.80
2019-04-11T01:20:37.773Z,101185.80
2019-04-11T01:23:11.035Z,101183.09
2019-04-11T01:25:46.405Z,101183.09
2019-04-11T01:28:19.321Z,101186.96
2019-04-11T01:31:11.619Z,101182.31
2019-04-11T01:33:44.292Z,101183.09
2019-04-11T01:36:16.807Z,101174.66
2019-04-11T01:38:50.930Z,101176.37
2019-04-11T01:41:24.572Z,101178.15
2019-04-11T01:44:02.146Z,101182.09
2019-04-11T01:46:31.947Z,101180.67
2019-04-11T01:49:10.141Z,101180.23
2019-04-11T01:51:42.712Z,101184.17
2019-04-11T01:54:15.337Z,101185.41
2019-04-11T01:56:47.767Z,101190.26
2019-04-11T01:59:21.535Z,101200.35
2019-04-11T02:01:56.911Z,101207.19
2019-04-11T02:04:32.080Z,101207.19
2019-04-11T02:07:05.135Z,101208.45
2019-04-11T02:09:37.997Z,101208.70
2019-04-11T02:12:10.226Z,101208.32
2019-04-11T02:14:43.827Z,101211.58
2019-04-11T02:17:16.792Z,101213.45
2019-04-11T02:19:50.256Z,101209.06
2019-04-11T02:22:40.433Z,101209.91
2019-04-11T02:25:28.293Z,101210.81
2019-04-11T02:28:04.868Z,101204.37
2019-04-11T02:30:41.210Z,101204.91
2019-04-11T02:33:14.071Z,101208.00
2019-04-11T02:35:49.249Z,101202.46
2019-04-11T02:38:23.563Z,101205.04
2019-04-11T02:40:57.835Z,101211.58
2019-04-11T02:43:31.952Z,101209.39
2019-04-11T02:46:11.769Z,101209.55
2019-04-11T02:48:40.491Z,101211.66
2019-04-11T02:51:14.619Z,101209.67
2019-04-11T02:53:49.389Z,101216.28
2019-04-11T02:56:23.762Z,101212.80
2019-04-11T02:58:57.605Z,101212.03
2019-04-11T03:01:31.724Z,101210.80
2019-04-11T03:04:04.987Z,101211.80
2019-04-11T03:06:39.670Z,101217.34
2019-04-11T03:09:13.307Z,101216.03
2019-04-11T03:11:47.231Z,101212.33
2019-04-11T03:14:20.768Z,101214.68
2019-04-11T03:17:02.505Z,101219.38
2019-04-11T03:19:42.285Z,101210.72
2019-04-11T03:22:03.316Z,101206.30
2019-04-11T03:24:36.110Z,101209.94
2019-04-11T03:27:10.051Z,101212.58
2019-04-11T03:29:43.166Z,101214.64
2019-04-11T03:33:08.021Z,101219.27
2019-04-11T03:35:34.936Z,101220.39
2019-04-11T03:37:55.112Z,101220.39
2019-04-11T03:40:23.869Z,101229.92
2019-04-11T03:42:51.213Z,101227.83
2019-04-11T03:45:33.263Z,101225.25
2019-04-11T03:48:02.355Z,101226.16
2019-04-11T03:50:23.347Z,101226.28
2019-04-11T03:52:53.888Z,101227.06
2019-04-11T03:55:28.441Z,101231.44
2019-04-11T03:58:03.633Z,101232.73
2019-04-11T04:00:40.589Z,101237.65
2019-04-11T04:03:11.405Z,101237.65
2019-04-11T04:05:44.940Z,101240.71
2019-04-11T04:08:20.330Z,101238.70
2019-04-11T04:11:12.380Z,101242.28
2019-04-11T04:13:48.220Z,101243.09
2019-04-11T04:16:39.848Z,101246.15
2019-04-11T04:19:10.846Z,101249.25
2019-04-11T04:21:44.335Z,101256.92
2019-04-11T04:24:32.113Z,101256.92
2019-04-11T04:27:04.532Z,101258.30
2019-04-11T04:29:37.987Z,101260.02
2019-04-11T04:32:14.113Z,101263.53
2019-04-11T04:34:49.057Z,101268.69
2019-04-11T04:37:22.366Z,101269.44
2019-04-11T04:40:13.222Z,101266.28
2019-04-11T04:42:36.627Z,101273.70
2019-04-11T04:45:07.945Z,101273.36
2019-04-11T04:47:47.980Z,101269.43
2019-04-11T04:50:15.469Z,101264.21
2019-04-11T04:52:49.183Z,101276.20
2019-04-11T04:55:23.410Z,101274.46
2019-04-11T04:57:57.572Z,101279.98
2019-04-11T05:00:31.989Z,101276.12
2019-04-11T05:03:05.467Z,101276.12
2019-04-11T05:05:38.850Z,101285.02
2019-04-11T05:08:11.233Z,101281.03
2019-04-11T05:10:44.948Z,101278.91
2019-04-11T05:13:17.668Z,101280.26
2019-04-11T05:16:02.763Z,101278.42
2019-04-11T05:18:23.943Z,101264.55
2019-04-11T05:20:56.982Z,101275.92
2019-04-11T05:23:29.781Z,101274.63
2019-04-11T05:26:03.398Z,101277.68
2019-04-11T05:28:37.194Z,101277.20
2019-04-11T05:31:10.204Z,101281.91
2019-04-11T05:33:43.487Z,101277.05
2019-04-11T05:36:16.609Z,101279.16
2019-04-11T05:38:49.137Z,101280.86
2019-04-11T05:41:23.042Z,101277.91
2019-04-11T05:43:55.690Z,101287.45
2019-04-11T05:46:35.473Z,101282.88
2019-04-11T05:49:05.434Z,101289.26
2019-04-11T05:51:41.632Z,101289.26
2019-04-11T05:54:14.144Z,101280.03
2019-04-11T05:56:52.043Z,101280.03
2019-04-11T05:59:24.040Z,101287.41
2019-04-11T06:02:05.257Z,101286.47
2019-04-11T06:04:34.459Z,101288.03
2019-04-11T06:07:23.771Z,101284.48
2019-04-11T06:10:08.469Z,101284.91
2019-04-11T06:12:45.539Z,101290.94
2019-04-11T06:15:20.381Z,101293.53
2019-04-11T06:17:54.543Z,101290.06
2019-04-11T06:20:37.997Z,101291.20
2019-04-11T06:23:12.868Z,101302.86
2019-04-11T06:25:53.401Z,101301.87
2019-04-11T06:28:28.735Z,101313.93
2019-04-11T06:31:20.166Z,101304.56
2019-04-11T06:33:58.782Z,101306.89
2019-04-11T06:36:43.421Z,101302.77
2019-04-11T06:39:18.947Z,101310.34
2019-04-11T06:41:54.881Z,101307.30
2019-04-11T06:44:32.274Z,101313.58
2019-04-11T06:47:08.226Z,101315.69
2019-04-11T06:49:46.681Z,101308.26
2019-04-11T06:52:20.893Z,101303.20
2019-04-11T06:54:56.054Z,101310.27
2019-04-11T06:57:30.629Z,101307.33
2019-04-11T07:00:05.243Z,101306.84
2019-04-11T07:02:39.561Z,101306.16
2019-04-11T07:05:13.987Z,101310.63
2019-04-11T07:07:49.386Z,101311.18
2019-04-11T07:10:39.015Z,101313.21
2019-04-11T07:13:19.056Z,101310.61
2019-04-11T07:15:52.775Z,101312.86
2019-04-11T07:18:35.855Z,101310.12
2019-04-11T07:21:10.594Z,101307.42
2019-04-11T07:24:00.913Z,101315.54
2019-04-11T07:26:35.156Z,101317.33
2019-04-11T07:29:25.770Z,101317.53
2019-04-11T07:32:09.389Z,101322.63
2019-04-11T07:35:00.102Z,101324.25
2019-04-11T07:37:34.370Z,101330.59
2019-04-11T07:40:10.439Z,101339.86
2019-04-11T07:42:52.785Z,101333.58
2019-04-11T07:45:29.994Z,101338.05
2019-04-11T07:48:07.265Z,101337.91
2019-04-11T07:50:40.294Z,101329.95
2019-04-11T07:53:14.404Z,101334.26
2019-04-11T07:55:47.552Z,101335.70
2019-04-11T07:58:30.872Z,101338.47
2019-04-11T08:01:05.136Z,101334.58
2019-04-11T08:03:51.303Z,101334.36
2019-04-11T08:06:26.495Z,101344.58
2019-04-11T08:09:15.505Z,101339.86
2019-04-11T08:11:49.840Z,101343.48
2019-04-11T08:14:24.560Z,101335.94
2019-04-11T08:17:01.725Z,101335.53
2019-04-11T08:19:35.771Z,101344.55
2019-04-11T08:22:25.864Z,101344.73
2019-04-11T08:25:00.853Z,101342.88
2019-04-11T08:27:52.117Z,101332.91
2019-04-11T08:30:16.971Z,101338.81
2019-04-11T08:32:53.996Z,101341.83
2019-04-11T08:35:40.031Z,101344.09
2019-04-11T08:38:24.683Z,101337.41
2019-04-11T08:41:01.035Z,101331.50
2019-04-11T08:43:37.575Z,101337.98
2019-04-11T08:46:22.618Z,101332.48
2019-04-11T08:49:15.298Z,101325.69
2019-04-11T08:51:49.540Z,101323.16
2019-04-11T08:54:31.390Z,101321.77
2019-04-11T08:57:04.698Z,101318.28
2019-04-11T08:59:39.703Z,101316.79
2019-04-11T09:02:12.806Z,101313.11
2019-04-11T09:04:48.171Z,101312.77
2019-04-11T09:07:35.942Z,101312.41
2019-04-11T09:10:28.178Z,101308.55
2019-04-11T09:13:15.300Z,101300.88
2019-04-11T09:16:05.578Z,101302.18
2019-04-11T09:18:39.852Z,101303.94
2019-04-11T09:21:28.850Z,101313.12
2019-04-11T09:24:02.928Z,101316.64
2019-04-11T09:26:53.422Z,101305.20
2019-04-11T09:29:39.919Z,101301.77
2019-04-11T09:32:28.498Z,101301.70
2019-04-11T09:35:10.037Z,101308.86
2019-04-11T09:37:44.569Z,101314.55
2019-04-11T09:40:34.789Z,101316.98
2019-04-11T09:43:24.207Z,101318.01
2019-04-11T09:46:16.592Z,101326.13
2019-04-11T09:48:48.763Z,101330.22
2019-04-11T09:51:31.763Z,101325.15
2019-04-11T09:54:15.645Z,101330.94
2019-04-11T09:56:49.734Z,101338.09
2019-04-11T09:59:37.068Z,101335.41
2019-04-11T10:02:12.715Z,101342.60
2019-04-11T10:04:48.460Z,101339.72
2019-04-11T10:07:27.916Z,101339.78
2019-04-11T10:10:05.023Z,101341.86
2019-04-11T10:12:40.581Z,101344.32
2019-04-11T10:15:15.380Z,101341.77
2019-04-11T10:18:19.562Z,101342.52
2019-04-11T10:20:42.729Z,101339.51
2019-04-11T10:23:32.811Z,101339.61
2019-04-11T10:26:06.213Z,101338.26
2019-04-11T10:28:56.651Z,101338.84
2019-04-11T10:31:30.596Z,101338.98
2019-04-11T10:34:15.009Z,101340.02
2019-04-11T10:36:49.598Z,101347.22
2019-04-11T10:39:35.412Z,101343.03
2019-04-11T10:42:10.582Z,101345.36
2019-04-11T10:44:54.111Z,101343.26
2019-04-11T10:47:29.105Z,101344.52
2019-04-11T10:50:03.513Z,101347.39
2019-04-11T10:52:40.340Z,101347.17
2019-04-11T10:55:15.602Z,101344.93
2019-04-11T10:57:49.591Z,101344.83
2019-04-11T11:00:27.275Z,101350.01
2019-04-11T11:03:04.144Z,101349.66
2019-04-11T11:05:40.550Z,101346.19
2019-04-11T11:08:21.564Z,101347.80
2019-04-11T11:10:55.945Z,101342.81
2019-04-11T11:13:45.884Z,101348.53
2019-04-11T11:16:20.349Z,101343.76
2019-04-11T11:19:39.057Z,101346.81
2019-04-11T11:21:43.731Z,101342.39
2019-04-11T11:24:17.952Z,101346.63
2019-04-11T11:26:53.729Z,101345.72
2019-04-11T11:29:31.832Z,101346.91
2019-04-11T11:32:07.056Z,101350.33
2019-04-11T11:34:49.325Z,101349.34
2019-04-11T11:37:35.387Z,101348.70
2019-04-11T11:40:17.967Z,101352.48
2019-04-11T11:42:50.584Z,101349.28
2019-04-11T11:45:30.780Z,101358.92
2019-04-11T11:48:10.696Z,101355.69
2019-04-11T11:50:39.190Z,101360.27
2019-04-11T11:53:14.764Z,101366.63
2019-04-11T11:55:49.575Z,101364.97
2019-04-11T11:58:25.779Z,101362.11
2019-04-11T12:01:03.639Z,101364.56
2019-04-11T12:03:35.082Z,101370.52
2019-04-11T12:06:09.596Z,101365.84
2019-04-11T12:09:00.399Z,101361.20
2019-04-11T12:11:36.182Z,101365.64
2019-04-11T12:14:20.549Z,101366.80
2019-04-11T12:17:10.238Z,101371.14
2019-04-11T12:19:52.294Z,101368.39
2019-04-11T12:22:20.024Z,101367.98
2019-04-11T12:25:07.187Z,101365.51
2019-04-11T12:27:45.737Z,101362.80
2019-04-11T12:30:23.495Z,101362.04
2019-04-11T12:32:52.936Z,101363.70
2019-04-11T12:35:36.661Z,101362.48
2019-04-11T12:38:20.419Z,101358.57
2019-04-11T12:41:10.753Z,101358.92
2019-04-11T12:44:01.143Z,101362.57
2019-04-11T12:46:51.239Z,101359.03
2019-04-11T12:49:26.301Z,101354.02
2019-04-11T12:52:16.587Z,101357.73
2019-04-11T12:54:52.749Z,101360.73
2019-04-11T12:57:42.966Z,101362.75
2019-04-11T13:00:17.794Z,101361.50
2019-04-11T13:03:02.218Z,101358.88
2019-04-11T13:05:36.330Z,101359.16
2019-04-11T13:08:08.220Z,101353.59
2019-04-11T13:10:42.724Z,101352.14
2019-04-11T13:13:28.604Z,101360.61
2019-04-11T13:16:11.964Z,101354.70
2019-04-11T13:18:57.830Z,101354.48
2019-04-11T13:21:40.745Z,101352.89
2019-04-11T13:24:15.066Z,101353.11
2019-04-11T13:26:58.183Z,101357.91
2019-04-11T13:29:42.751Z,101359.56
2019-04-11T13:32:28.126Z,101355.73
2019-04-11T13:35:09.511Z,101358.05
2019-04-11T13:37:52.383Z,101359.83
2019-04-11T13:40:30.015Z,101353.22
2019-04-11T13:43:06.897Z,101362.80
2019-04-11T13:45:47.130Z,101355.86
2019-04-11T13:48:37.650Z,101353.30
2019-04-11T13:51:11.929Z,101354.66
2019-04-11T13:54:01.902Z,101355.67
2019-04-11T13:56:52.752Z,101351.67
2019-04-11T13:59:34.153Z,101351.07
2019-04-11T14:02:13.889Z,101350.64
2019-04-11T14:04:57.354Z,101352.63
2019-04-11T14:07:31.246Z,101351.45
2019-04-11T14:10:05.276Z,101350.09
2019-04-11T14:12:39.546Z,101353.40
2019-04-11T14:15:30.761Z,101355.39
2019-04-11T14:18:05.172Z,101352.42
2019-04-11T14:20:54.458Z,101355.06
2019-04-11T14:23:41.878Z,101356.55
2019-04-11T14:26:16.678Z,101351.74
2019-04-11T14:28:50.721Z,101354.89
2019-04-11T14:31:36.906Z,101354.11
2019-04-11T14:34:13.383Z,101349.39
2019-04-11T14:36:50.012Z,101345.27
2019-04-11T14:39:27.671Z,101349.73
2019-04-11T14:42:01.377Z,101342.72
2019-04-11T14:44:38.440Z,101346.14
2019-04-11T14:47:24.247Z,101345.39
2019-04-11T14:50:05.384Z,101345.94
2019-04-11T14:52:47.654Z,101340.72
2019-04-11T14:55:21.918Z,101345.59
2019-04-11T14:58:05.071Z,101341.27
2019-04-11T15:00:39.051Z,101343.09
2019-04-11T15:03:14.080Z,101346.59
2019-04-11T15:05:48.166Z,101341.63
2019-04-11T15:08:25.074Z,101346.24
2019-04-11T15:10:59.403Z,101346.00
2019-04-11T15:13:33.718Z,101344.75
2019-04-11T15:16:27.386Z,101347.20
2019-04-11T15:19:01.196Z,101349.65
2019-04-11T15:21:51.491Z,101352.76
2019-04-11T15:24:24.363Z,101343.64
2019-04-11T15:27:14.871Z,101358.52
2019-04-11T15:29:47.442Z,101353.73
2019-04-11T15:32:33.633Z,101356.13
2019-04-11T15:35:07.647Z,101360.23
2019-04-11T15:37:42.021Z,101352.75
2019-04-11T15:40:17.297Z,101352.19
2019-04-11T15:42:55.415Z,101360.03
2019-04-11T15:45:32.283Z,101358.51
2019-04-11T15:48:23.457Z,101360.61
2019-04-11T15:51:06.719Z,101370.06
2019-04-11T15:53:46.988Z,101366.30
2019-04-11T15:56:41.687Z,101367.46
2019-04-11T15:59:13.113Z,101369.75
2019-04-11T16:02:04.060Z,101366.18
2019-04-11T16:04:38.468Z,101366.98
2019-04-11T16:07:13.596Z,101370.16
2019-04-11T16:09:50.466Z,101361.70
2019-04-11T16:12:40.663Z,101364.47
2019-04-11T16:15:15.704Z,101370.42
2019-04-11T16:18:04.761Z,101366.69
2019-04-11T16:20:37.047Z,101367.33
2019-04-11T16:23:13.956Z,101370.09
2019-04-11T16:25:48.232Z,101369.30
2019-04-11T16:28:22.431Z,101378.24
2019-04-11T16:30:56.654Z,101372.87
2019-04-11T16:33:36.551Z,101374.58
2019-04-11T16:36:19.492Z,101377.44
2019-04-11T16:38:51.903Z,101370.11
2019-04-11T16:41:42.593Z,101388.31
2019-04-11T16:44:24.832Z,101383.45
2019-04-11T16:47:04.848Z,101388.98
2019-04-11T16:49:37.088Z,101393.52
2019-04-11T16:52:09.301Z,101387.34
2019-04-11T16:54:41.434Z,101390.40
2019-04-11T16:57:14.317Z,101389.10
2019-04-11T16:59:49.596Z,101387.49
2019-04-11T17:02:21.850Z,101389.27
2019-04-11T17:04:56.351Z,101386.27
2019-04-11T17:07:46.466Z,101394.29
2019-04-11T17:10:20.520Z,101396.55
2019-04-11T17:12:53.878Z,101394.78
2019-04-11T17:15:30.492Z,101391.61
2019-04-11T17:18:02.194Z,101391.50
2019-04-11T17:20:36.180Z,101392.00
2019-04-11T17:23:09.802Z,101403.13
2019-04-11T17:25:42.364Z,101403.86
2019-04-11T17:28:14.957Z,101403.86
2019-04-11T17:30:47.526Z,101414.41
2019-04-11T17:33:19.818Z,101414.46
2019-04-11T17:35:52.474Z,101410.78
2019-04-11T17:38:25.164Z,101418.18
2019-04-11T17:40:57.938Z,101418.58
2019-04-11T17:43:31.028Z,101426.20
2019-04-11T17:46:03.915Z,101424.44
2019-04-11T17:48:36.706Z,101430.92
2019-04-11T17:51:09.707Z,101432.55
2019-04-11T17:53:42.773Z,101441.65
2019-04-11T17:56:15.352Z,101442.30
2019-04-11T17:58:49.327Z,101445.22
2019-04-11T18:01:22.038Z,101448.22
2019-04-11T18:03:54.721Z,101456.08
2019-04-11T18:06:26.961Z,101456.23
2019-04-11T18:08:59.647Z,101458.03
2019-04-11T18:11:32.228Z,101455.26
2019-04-11T18:14:04.915Z,101466.05
2019-04-11T18:16:37.651Z,101466.55
2019-04-11T18:19:10.182Z,101470.45
2019-04-11T18:21:42.854Z,101467.45
2019-04-11T18:24:15.052Z,101473.05
2019-04-11T18:26:51.597Z,101471.17
2019-04-11T18:29:23.048Z,101477.67
2019-04-11T18:31:55.997Z,101478.79
2019-04-11T18:34:41.082Z,101484.96
2019-04-11T18:37:32.185Z,101472.77
2019-04-11T18:40:23.816Z,101483.01
2019-04-11T18:43:16.272Z,101484.37
2019-04-11T18:46:08.845Z,101481.38
2019-04-11T18:48:54.497Z,101481.45
2019-04-11T18:51:30.513Z,101489.90
2019-04-11T18:54:03.445Z,101486.80
2019-04-11T18:56:43.825Z,101486.47
2019-04-11T18:59:28.840Z,101486.40
2019-04-11T19:02:14.772Z,101496.00
2019-04-11T19:05:02.116Z,101492.39
2019-04-11T19:07:42.827Z,101494.20
2019-04-11T19:10:15.970Z,101495.70
2019-04-11T19:12:48.432Z,101496.61
2019-04-11T19:15:31.975Z,101491.55
2019-04-11T19:18:08.197Z,101491.44
2019-04-11T19:20:43.353Z,101490.33
2019-04-11T19:23:16.571Z,101488.31
2019-04-11T19:25:48.850Z,101493.33
2019-04-11T19:28:24.907Z,101495.27
2019-04-11T19:30:56.848Z,101496.96
2019-04-11T19:33:40.020Z,101497.61
2019-04-11T19:36:28.645Z,101492.41
2019-04-11T19:39:19.107Z,101493.28
2019-04-11T19:41:57.837Z,101498.40
2019-04-11T19:44:31.972Z,101499.62
2019-04-11T19:47:04.631Z,101500.09
2019-04-11T19:49:37.397Z,101503.33
2019-04-11T19:52:09.873Z,101499.19
2019-04-11T19:54:42.207Z,101500.92
2019-04-11T19:57:14.837Z,101500.23
2019-04-11T19:59:47.173Z,101497.77
2019-04-11T20:02:23.194Z,101492.89
2019-04-11T20:04:57.660Z,101492.58
2019-04-11T20:07:27.661Z,101496.94
2019-04-11T20:10:01.491Z,101499.86
2019-04-11T20:12:34.384Z,101501.16
2019-04-11T20:15:08.840Z,101495.56
2019-04-11T20:17:44.652Z,101494.30
2019-04-11T20:20:16.104Z,101497.91
2019-04-11T20:22:58.485Z,101501.37
2019-04-11T20:25:24.140Z,101499.20
2019-04-11T20:27:57.490Z,101501.61
2019-04-11T20:30:34.562Z,101505.19
2019-04-11T20:33:07.279Z,101499.59
2019-04-11T20:35:40.598Z,101501.42
2019-04-11T20:38:16.190Z,101500.84
2019-04-11T20:40:53.284Z,101499.43
2019-04-11T20:43:25.927Z,101501.93
2019-04-11T20:46:00.422Z,101505.13
2019-04-11T20:48:37.776Z,101503.33
2019-04-11T20:51:10.683Z,101508.05
2019-04-11T20:53:43.363Z,101502.74
2019-04-11T20:56:23.920Z,101506.16
2019-04-11T20:58:50.977Z,101504.17
2019-04-11T21:01:23.788Z,101507.27
2019-04-11T21:04:00.081Z,101509.76
2019-04-11T21:06:32.038Z,101501.50
2019-04-11T21:09:09.166Z,101508.58
2019-04-11T21:11:42.348Z,101507.48
2019-04-11T21:14:15.039Z,101507.48
2019-04-11T21:16:47.741Z,101506.31
2019-04-11T21:19:20.289Z,101507.29
2019-04-11T21:21:53.586Z,101504.70
2019-04-11T21:24:30.562Z,101506.78
2019-04-11T21:27:01.400Z,101507.10
2019-04-11T21:29:33.727Z,101513.91
2019-04-11T21:32:06.348Z,101514.22
2019-04-11T21:34:39.044Z,101513.32
2019-04-11T21:37:12.527Z,101517.02
2019-04-11T21:39:45.931Z,101513.91
2019-04-11T21:42:18.222Z,101507.92
2019-04-11T21:44:50.826Z,101505.42
2019-04-11T21:47:23.453Z,101511.91
2019-04-11T21:49:56.177Z,101512.73
2019-04-11T21:52:28.906Z,101512.63
2019-04-11T21:55:01.694Z,101512.03
2019-04-11T21:57:34.002Z,101509.05
2019-04-11T22:00:16.986Z,101516.44
2019-04-11T22:02:52.006Z,101517.47
2019-04-11T22:05:29.005Z,101519.74
2019-04-11T22:08:00.949Z,101513.66
2019-04-11T22:10:34.093Z,101511.77
2019-04-11T22:13:09.842Z,101512.27
2019-04-11T22:15:42.420Z,101520.73
2019-04-11T22:18:16.689Z,101520.26
2019-04-11T22:20:49.891Z,101515.86
2019-04-11T22:23:22.468Z,101517.86
2019-04-11T22:25:55.038Z,101514.09
2019-04-11T22:28:27.815Z,101522.66
2019-04-11T22:31:00.366Z,101523.06
2019-04-11T22:33:34.125Z,101523.06
2019-04-11T22:36:06.254Z,101529.03
2019-04-11T22:38:38.954Z,101520.00
2019-04-11T22:41:12.032Z,101527.47
2019-04-11T22:43:44.710Z,101526.28
2019-04-11T22:46:20.989Z,101528.95
2019-04-11T22:48:51.717Z,101531.55
2019-04-11T22:51:24.438Z,101528.25
2019-04-11T22:54:00.492Z,101533.75
2019-04-11T22:56:30.967Z,101534.15
2019-04-11T22:59:03.251Z,101532.06
2019-04-11T23:01:35.936Z,101538.63
2019-04-11T23:04:08.604Z,101533.95
2019-04-11T23:06:41.047Z,101534.15
2019-04-11T23:09:14.071Z,101532.84
2019-04-11T23:11:46.288Z,101538.12
2019-04-11T23:14:19.314Z,101525.66
2019-04-11T23:16:51.534Z,101527.06
2019-04-11T23:19:24.271Z,101522.66
2019-04-11T23:21:56.952Z,101527.78
2019-04-11T23:24:29.625Z,101530.57
2019-04-11T23:27:02.197Z,101529.08
2019-04-11T23:29:34.888Z,101533.88
2019-04-11T23:32:07.608Z,101532.37
2019-04-11T23:34:40.443Z,101528.37
2019-04-11T23:37:12.907Z,101532.58
2019-04-11T23:39:45.594Z,101526.09
2019-04-11T23:42:20.373Z,101528.30
2019-04-11T23:44:53.110Z,101531.28
2019-04-11T23:47:25.690Z,101527.20
2019-04-11T23:50:00.317Z,101527.31
2019-04-11T23:52:32.546Z,101524.80
2019-04-11T23:55:05.972Z,101519.61
2019-04-11T23:57:38.651Z,101523.81
